Date,TemperatureHighF,TemperatureAvgF,TemperatureLowF,DewpointHighF,DewpointAvgF,DewpointLowF,HumidityHigh,HumidityAvg,HumidityLow,PressureMaxIn,PressureMinIn,WindSpeedMaxMPH,WindSpeedAvgMPH,GustSpeedMaxMPH,PrecipitationSumIn
2013-3-1,44,36,32,33,29,25,91,76,53,29.75,29.56,3,1,11,0.00
2013-3-2,37,32,27,25,24,22,84,73,61,29.75,29.67,3,1,13,0.00
2013-3-3,31,27,24,24,20,16,84,75,60,29.72,29.65,3,2,13,0.00
2013-3-4,53,37,24,45,23,17,76,59,37,29.85,29.70,5,2,14,0.00
2013-3-5,46,34,27,29,25,21,83,68,45,30.04,29.84,4,1,11,0.00
2013-3-6,39,35,33,34,30,27,91,80,69,30.01,29.92,6,4,12,0.00
2013-3-7,53,40,30,33,30,26,93,72,46,30.05,29.94,4,1,14,0.02
2013-3-8,37,33,28,31,28,23,94,82,60,30.19,29.96,4,1,9,0.06
2013-3-9,55,38,27,28,23,19,84,59,25,30.33,30.17,3,1,9,0.09
2013-3-10,52,36,24,32,28,22,96,75,41,30.39,30.29,2,0,6,0.00
2013-3-11,51,41,33,42,37,31,97,86,66,30.32,30.11,2,0,6,0.00
2013-3-12,51,46,38,50,45,35,98,97,89,30.11,29.67,3,0,10,0.97
2013-3-13,47,40,31,35,27,20,92,62,38,29.85,29.75,2,1,9,0.00
2013-3-14,33,29,25,28,16,8,86,60,41,29.90,29.80,5,1,17,0.00
2013-3-15,41,31,21,29,17,8,85,59,36,29.93,29.70,3,1,9,0.00
2013-3-16,37,31,26,27,21,14,90,67,40,29.90,29.73,2,0,5,0.00
2013-3-17,35,28,21,26,13,5,95,57,30,30.32,29.90,4,1,10,0.00
2013-3-18,34,26,17,26,11,4,94,56,31,30.43,30.09,3,1,7,0.00
2013-3-19,37,31,27,34,30,26,96,93,86,30.09,29.67,5,2,9,0.24
2013-3-20,42,31,24,28,20,15,90,65,36,29.83,29.76,3,1,11,0.09
2013-3-21,36,30,26,23,14,8,82,55,32,29.83,29.62,2,1,8,0.01
2013-3-22,38,31,21,22,18,10,72,58,46,29.83,29.69,3,1,9,0.00
2013-3-23,43,35,28,23,20,15,78,56,34,29.89,29.75,5,1,16,0.00
2013-3-24,44,34,26,26,22,17,79,63,44,29.91,29.72,4,1,12,0.00
2013-3-25,43,36,29,28,25,23,84,65,49,29.75,29.45,4,2,8,0.00
2013-3-26,48,38,30,30,26,21,79,64,41,29.84,29.57,4,1,13,0.00
2013-3-27,52,39,29,27,23,18,80,54,29,29.93,29.82,4,1,10,0.00
2013-3-28,48,40,32,34,30,26,81,69,51,30.08,29.92,3,1,11,0.00
2013-3-29,54,44,35,32,28,25,75,56,35,30.11,30.02,3,1,12,0.00
2013-3-30,55,42,29,32,25,18,90,57,25,30.13,30.05,4,1,10,0.00
2013-3-31,55,42,29,40,28,20,95,60,31,30.13,29.67,3,1,11,0.09